sensor_id;sensor_type;location;lat;lon;timestamp;temperature;humidity
75430;DHT22;64127;51.488;5.462;2023-03-13T00:02:02;11.20;99.90
75430;DHT22;64127;51.488;5.462;2023-03-13T00:04:35;11.10;99.90
75430;DHT22;64127;51.488;5.462;2023-03-13T00:07:07;11.10;99.90
75430;DHT22;64127;51.488;5.462;2023-03-13T00:09:40;11.10;99.90
75430;DHT22;64127;51.488;5.462;2023-03-13T00:12:12;11.10;99.90
75430;DHT22;64127;51.488;5.462;2023-03-13T00:14:44;11.00;99.90
75430;DHT22;64127;51.488;5.462;2023-03-13T00:17:16;11.00;99.90
75430;DHT22;64127;51.488;5.462;2023-03-13T00:19:49;11.00;99.90
75430;DHT22;64127;51.488;5.462;2023-03-13T00:22:21;11.00;99.90
75430;DHT22;64127;51.488;5.462;2023-03-13T00:24:53;10.90;99.90
75430;DHT22;64127;51.488;5.462;2023-03-13T00:27:25;10.90;99.90
75430;DHT22;64127;51.488;5.462;2023-03-13T00:29:57;10.90;99.90
75430;DHT22;64127;51.488;5.462;2023-03-13T00:32:29;10.80;99.90
75430;DHT22;64127;51.488;5.462;2023-03-13T00:35:01;10.80;99.90
75430;DHT22;64127;51.488;5.462;2023-03-13T00:37:33;10.80;99.90
75430;DHT22;64127;51.488;5.462;2023-03-13T00:40:06;10.80;99.90
75430;DHT22;64127;51.488;5.462;2023-03-13T00:42:39;10.70;99.90
75430;DHT22;64127;51.488;5.462;2023-03-13T00:45:11;10.80;99.90
75430;DHT22;64127;51.488;5.462;2023-03-13T00:47:43;10.70;99.90
75430;DHT22;64127;51.488;5.462;2023-03-13T00:50:15;10.70;99.90
75430;DHT22;64127;51.488;5.462;2023-03-13T00:52:47;10.70;99.90
75430;DHT22;64127;51.488;5.462;2023-03-13T00:55:19;10.70;99.90
75430;DHT22;64127;51.488;5.462;2023-03-13T00:57:51;10.70;99.90
75430;DHT22;64127;51.488;5.462;2023-03-13T01:00:23;10.70;99.90
75430;DHT22;64127;51.488;5.462;2023-03-13T01:02:55;10.70;99.90
75430;DHT22;64127;51.488;5.462;2023-03-13T01:05:27;10.70;99.90
75430;DHT22;64127;51.488;5.462;2023-03-13T01:07:59;10.70;99.90
75430;DHT22;64127;51.488;5.462;2023-03-13T01:10:31;10.70;99.90
75430;DHT22;64127;51.488;5.462;2023-03-13T01:13:03;10.70;99.90
75430;DHT22;64127;51.488;5.462;2023-03-13T01:15:35;10.70;99.90
75430;DHT22;64127;51.488;5.462;2023-03-13T01:18:07;10.70;99.90
75430;DHT22;64127;51.488;5.462;2023-03-13T01:20:40;10.70;99.90
75430;DHT22;64127;51.488;5.462;2023-03-13T01:23:12;10.70;99.90
75430;DHT22;64127;51.488;5.462;2023-03-13T01:25:44;10.70;99.90
75430;DHT22;64127;51.488;5.462;2023-03-13T01:28:16;10.80;99.90
75430;DHT22;64127;51.488;5.462;2023-03-13T01:30:48;10.80;99.90
75430;DHT22;64127;51.488;5.462;2023-03-13T01:33:20;10.80;99.90
75430;DHT22;64127;51.488;5.462;2023-03-13T01:36:00;10.80;99.90
75430;DHT22;64127;51.488;5.462;2023-03-13T01:38:33;10.80;99.90
75430;DHT22;64127;51.488;5.462;2023-03-13T01:41:07;10.90;99.90
75430;DHT22;64127;51.488;5.462;2023-03-13T01:43:42;10.90;99.90
75430;DHT22;64127;51.488;5.462;2023-03-13T01:46:41;10.90;99.90
75430;DHT22;64127;51.488;5.462;2023-03-13T01:49:31;10.90;99.90
75430;DHT22;64127;51.488;5.462;2023-03-13T01:52:18;11.00;99.90
75430;DHT22;64127;51.488;5.462;2023-03-13T01:55:10;11.10;99.90
75430;DHT22;64127;51.488;5.462;2023-03-13T01:57:52;11.10;99.90
75430;DHT22;64127;51.488;5.462;2023-03-13T02:00:32;11.10;99.90
75430;DHT22;64127;51.488;5.462;2023-03-13T02:03:11;11.20;99.90
75430;DHT22;64127;51.488;5.462;2023-03-13T02:05:48;11.20;99.90
75430;DHT22;64127;51.488;5.462;2023-03-13T02:08:29;11.20;99.90
75430;DHT22;64127;51.488;5.462;2023-03-13T02:12:07;11.30;99.90
75430;DHT22;64127;51.488;5.462;2023-03-13T02:14:12;11.30;99.90
75430;DHT22;64127;51.488;5.462;2023-03-13T02:16:44;11.30;99.90
75430;DHT22;64127;51.488;5.462;2023-03-13T02:19:49;11.30;99.90
75430;DHT22;64127;51.488;5.462;2023-03-13T02:28:02;11.40;99.90
75430;DHT22;64127;51.488;5.462;2023-03-13T02:30:39;11.50;99.90
75430;DHT22;64127;51.488;5.462;2023-03-13T02:33:14;11.50;99.90
75430;DHT22;64127;51.488;5.462;2023-03-13T02:35:47;11.50;99.90
75430;DHT22;64127;51.488;5.462;2023-03-13T02:38:23;11.50;99.90
75430;DHT22;64127;51.488;5.462;2023-03-13T02:40:59;11.60;99.90
75430;DHT22;64127;51.488;5.462;2023-03-13T02:43:35;11.50;99.90
75430;DHT22;64127;51.488;5.462;2023-03-13T02:48:47;11.60;99.90
75430;DHT22;64127;51.488;5.462;2023-03-13T02:52:03;11.60;99.90
75430;DHT22;64127;51.488;5.462;2023-03-13T02:54:34;11.60;99.90
75430;DHT22;64127;51.488;5.462;2023-03-13T02:57:07;11.60;99.90
75430;DHT22;64127;51.488;5.462;2023-03-13T02:59:39;11.60;99.90
75430;DHT22;64127;51.488;5.462;2023-03-13T03:02:11;11.70;99.90
75430;DHT22;64127;51.488;5.462;2023-03-13T03:04:43;11.70;99.90
75430;DHT22;64127;51.488;5.462;2023-03-13T03:07:15;11.70;99.90
75430;DHT22;64127;51.488;5.462;2023-03-13T03:09:47;11.70;99.90
75430;DHT22;64127;51.488;5.462;2023-03-13T03:12:19;11.70;99.90
75430;DHT22;64127;51.488;5.462;2023-03-13T03:14:51;11.80;99.90
75430;DHT22;64127;51.488;5.462;2023-03-13T03:17:23;11.80;99.90
75430;DHT22;64127;51.488;5.462;2023-03-13T03:19:55;11.80;99.90
75430;DHT22;64127;51.488;5.462;2023-03-13T03:22:27;11.80;99.90
75430;DHT22;64127;51.488;5.462;2023-03-13T03:24:59;11.90;99.90
75430;DHT22;64127;51.488;5.462;2023-03-13T03:27:31;11.90;99.90
75430;DHT22;64127;51.488;5.462;2023-03-13T03:30:04;11.90;99.90
75430;DHT22;64127;51.488;5.462;2023-03-13T03:32:37;12.00;99.90
75430;DHT22;64127;51.488;5.462;2023-03-13T03:35:09;12.00;99.90
75430;DHT22;64127;51.488;5.462;2023-03-13T03:37:41;12.00;99.90
75430;DHT22;64127;51.488;5.462;2023-03-13T03:40:13;12.00;99.90
75430;DHT22;64127;51.488;5.462;2023-03-13T03:42:45;12.00;99.90
75430;DHT22;64127;51.488;5.462;2023-03-13T03:45:18;12.00;99.90
75430;DHT22;64127;51.488;5.462;2023-03-13T03:47:50;12.10;99.90
75430;DHT22;64127;51.488;5.462;2023-03-13T03:50:22;12.10;99.90
75430;DHT22;64127;51.488;5.462;2023-03-13T03:52:53;12.10;99.90
75430;DHT22;64127;51.488;5.462;2023-03-13T03:55:25;12.10;99.90
75430;DHT22;64127;51.488;5.462;2023-03-13T03:57:57;12.20;99.90
75430;DHT22;64127;51.488;5.462;2023-03-13T04:00:30;12.20;99.90
75430;DHT22;64127;51.488;5.462;2023-03-13T04:03:02;12.20;99.90
75430;DHT22;64127;51.488;5.462;2023-03-13T04:05:34;12.30;99.90
75430;DHT22;64127;51.488;5.462;2023-03-13T04:08:06;12.20;99.90
75430;DHT22;64127;51.488;5.462;2023-03-13T04:10:39;12.30;99.90
75430;DHT22;64127;51.488;5.462;2023-03-13T04:13:11;12.30;99.90
75430;DHT22;64127;51.488;5.462;2023-03-13T04:15:43;12.40;99.90
75430;DHT22;64127;51.488;5.462;2023-03-13T04:18:15;12.40;99.90
75430;DHT22;64127;51.488;5.462;2023-03-13T04:20:47;12.40;99.90
75430;DHT22;64127;51.488;5.462;2023-03-13T04:23:19;12.50;99.90
75430;DHT22;64127;51.488;5.462;2023-03-13T04:25:51;12.50;99.90
75430;DHT22;64127;51.488;5.462;2023-03-13T04:28:23;12.60;99.90
75430;DHT22;64127;51.488;5.462;2023-03-13T04:30:55;12.60;99.90
75430;DHT22;64127;51.488;5.462;2023-03-13T04:33:28;12.60;99.90
75430;DHT22;64127;51.488;5.462;2023-03-13T04:36:00;12.70;99.90
75430;DHT22;64127;51.488;5.462;2023-03-13T04:38:33;12.70;99.90
75430;DHT22;64127;51.488;5.462;2023-03-13T04:41:05;12.70;99.90
75430;DHT22;64127;51.488;5.462;2023-03-13T04:43:37;12.80;99.90
75430;DHT22;64127;51.488;5.462;2023-03-13T04:46:09;12.80;99.90
75430;DHT22;64127;51.488;5.462;2023-03-13T04:48:41;12.80;99.90
75430;DHT22;64127;51.488;5.462;2023-03-13T04:51:13;12.80;99.90
75430;DHT22;64127;51.488;5.462;2023-03-13T04:53:45;12.80;99.90
75430;DHT22;64127;51.488;5.462;2023-03-13T04:56:25;12.80;99.90
75430;DHT22;64127;51.488;5.462;2023-03-13T04:59:14;12.90;99.90
75430;DHT22;64127;51.488;5.462;2023-03-13T05:01:46;12.90;99.90
75430;DHT22;64127;51.488;5.462;2023-03-13T05:04:18;12.90;99.90
75430;DHT22;64127;51.488;5.462;2023-03-13T05:06:50;12.90;99.90
75430;DHT22;64127;51.488;5.462;2023-03-13T05:09:22;12.90;99.90
75430;DHT22;64127;51.488;5.462;2023-03-13T05:11:54;13.00;99.90
75430;DHT22;64127;51.488;5.462;2023-03-13T05:14:28;13.00;99.90
75430;DHT22;64127;51.488;5.462;2023-03-13T05:17:01;13.00;99.90
75430;DHT22;64127;51.488;5.462;2023-03-13T05:19:33;13.00;99.90
75430;DHT22;64127;51.488;5.462;2023-03-13T05:22:05;13.10;99.90
75430;DHT22;64127;51.488;5.462;2023-03-13T05:24:36;13.10;99.90
75430;DHT22;64127;51.488;5.462;2023-03-13T05:27:12;13.10;99.90
75430;DHT22;64127;51.488;5.462;2023-03-13T05:29:44;13.20;99.90
75430;DHT22;64127;51.488;5.462;2023-03-13T05:32:16;13.20;99.90
75430;DHT22;64127;51.488;5.462;2023-03-13T05:34:48;13.20;99.90
75430;DHT22;64127;51.488;5.462;2023-03-13T05:37:20;13.30;99.90
75430;DHT22;64127;51.488;5.462;2023-03-13T05:39:52;13.30;99.90
75430;DHT22;64127;51.488;5.462;2023-03-13T05:42:24;13.30;99.90
75430;DHT22;64127;51.488;5.462;2023-03-13T05:44:57;13.40;99.90
75430;DHT22;64127;51.488;5.462;2023-03-13T05:47:29;13.40;99.90
75430;DHT22;64127;51.488;5.462;2023-03-13T05:50:01;13.40;99.90
75430;DHT22;64127;51.488;5.462;2023-03-13T05:52:33;13.50;99.90
75430;DHT22;64127;51.488;5.462;2023-03-13T05:55:05;13.50;99.90
75430;DHT22;64127;51.488;5.462;2023-03-13T05:57:38;13.50;99.90
75430;DHT22;64127;51.488;5.462;2023-03-13T06:00:10;13.50;99.90
75430;DHT22;64127;51.488;5.462;2023-03-13T06:02:43;13.50;99.90
75430;DHT22;64127;51.488;5.462;2023-03-13T06:05:15;13.50;99.90
75430;DHT22;64127;51.488;5.462;2023-03-13T06:07:49;13.60;99.90
75430;DHT22;64127;51.488;5.462;2023-03-13T06:10:21;13.60;99.90
75430;DHT22;64127;51.488;5.462;2023-03-13T06:12:54;13.60;99.90
75430;DHT22;64127;51.488;5.462;2023-03-13T06:15:26;13.60;99.90
75430;DHT22;64127;51.488;5.462;2023-03-13T06:17:58;13.60;99.90
75430;DHT22;64127;51.488;5.462;2023-03-13T06:20:30;13.70;99.90
75430;DHT22;64127;51.488;5.462;2023-03-13T06:23:02;13.70;99.90
75430;DHT22;64127;51.488;5.462;2023-03-13T06:25:34;13.70;99.90
75430;DHT22;64127;51.488;5.462;2023-03-13T06:28:06;13.70;99.90
75430;DHT22;64127;51.488;5.462;2023-03-13T06:30:38;13.70;99.90
75430;DHT22;64127;51.488;5.462;2023-03-13T06:33:10;13.70;99.90
75430;DHT22;64127;51.488;5.462;2023-03-13T06:35:43;13.70;99.90
75430;DHT22;64127;51.488;5.462;2023-03-13T06:38:27;13.70;99.90
75430;DHT22;64127;51.488;5.462;2023-03-13T06:41:00;13.70;99.90
75430;DHT22;64127;51.488;5.462;2023-03-13T06:43:32;13.70;99.90
75430;DHT22;64127;51.488;5.462;2023-03-13T06:46:05;13.70;99.90
75430;DHT22;64127;51.488;5.462;2023-03-13T06:48:38;13.70;99.90
75430;DHT22;64127;51.488;5.462;2023-03-13T06:51:11;13.80;99.90
75430;DHT22;64127;51.488;5.462;2023-03-13T06:53:45;13.80;99.90
75430;DHT22;64127;51.488;5.462;2023-03-13T06:56:17;13.80;99.90
75430;DHT22;64127;51.488;5.462;2023-03-13T06:58:50;13.80;99.90
75430;DHT22;64127;51.488;5.462;2023-03-13T07:01:22;13.90;99.90
75430;DHT22;64127;51.488;5.462;2023-03-13T07:03:54;13.90;99.90
75430;DHT22;64127;51.488;5.462;2023-03-13T07:06:26;13.90;99.90
75430;DHT22;64127;51.488;5.462;2023-03-13T07:08:58;13.90;99.90
75430;DHT22;64127;51.488;5.462;2023-03-13T07:11:30;14.00;99.90
75430;DHT22;64127;51.488;5.462;2023-03-13T07:14:02;14.00;99.90
75430;DHT22;64127;51.488;5.462;2023-03-13T07:16:47;14.00;99.90
75430;DHT22;64127;51.488;5.462;2023-03-13T07:19:19;14.00;99.90
75430;DHT22;64127;51.488;5.462;2023-03-13T07:21:52;14.00;99.90
75430;DHT22;64127;51.488;5.462;2023-03-13T07:24:24;14.00;99.90
75430;DHT22;64127;51.488;5.462;2023-03-13T07:26:56;14.00;99.90
75430;DHT22;64127;51.488;5.462;2023-03-13T07:29:38;14.10;99.90
75430;DHT22;64127;51.488;5.462;2023-03-13T07:32:10;14.10;99.90
75430;DHT22;64127;51.488;5.462;2023-03-13T07:34:42;14.10;99.90
75430;DHT22;64127;51.488;5.462;2023-03-13T07:37:17;14.10;99.90
75430;DHT22;64127;51.488;5.462;2023-03-13T07:39:49;14.10;99.90
75430;DHT22;64127;51.488;5.462;2023-03-13T07:42:21;14.10;99.90
75430;DHT22;64127;51.488;5.462;2023-03-13T07:44:53;14.20;99.90
75430;DHT22;64127;51.488;5.462;2023-03-13T07:47:28;14.20;99.90
75430;DHT22;64127;51.488;5.462;2023-03-13T07:49:59;14.20;99.90
75430;DHT22;64127;51.488;5.462;2023-03-13T07:52:32;14.20;99.90
75430;DHT22;64127;51.488;5.462;2023-03-13T07:55:04;14.20;99.90
75430;DHT22;64127;51.488;5.462;2023-03-13T07:57:36;14.20;99.90
75430;DHT22;64127;51.488;5.462;2023-03-13T08:00:09;14.20;99.90
75430;DHT22;64127;51.488;5.462;2023-03-13T08:02:46;14.20;99.90
75430;DHT22;64127;51.488;5.462;2023-03-13T08:05:19;14.30;99.90
75430;DHT22;64127;51.488;5.462;2023-03-13T08:07:51;14.30;99.90
75430;DHT22;64127;51.488;5.462;2023-03-13T08:10:23;14.20;99.90
75430;DHT22;64127;51.488;5.462;2023-03-13T08:12:55;14.30;99.90
75430;DHT22;64127;51.488;5.462;2023-03-13T08:15:27;14.40;99.90
75430;DHT22;64127;51.488;5.462;2023-03-13T08:17:59;14.40;99.90
75430;DHT22;64127;51.488;5.462;2023-03-13T08:20:31;14.40;99.90
75430;DHT22;64127;51.488;5.462;2023-03-13T08:23:03;14.50;99.90
75430;DHT22;64127;51.488;5.462;2023-03-13T08:25:35;14.50;99.90
75430;DHT22;64127;51.488;5.462;2023-03-13T08:28:07;14.50;99.90
75430;DHT22;64127;51.488;5.462;2023-03-13T08:30:39;14.60;99.90
75430;DHT22;64127;51.488;5.462;2023-03-13T08:33:11;14.60;99.90
75430;DHT22;64127;51.488;5.462;2023-03-13T08:35:43;14.70;99.90
75430;DHT22;64127;51.488;5.462;2023-03-13T08:38:15;14.70;99.90
75430;DHT22;64127;51.488;5.462;2023-03-13T08:40:47;14.80;99.90
75430;DHT22;64127;51.488;5.462;2023-03-13T08:43:19;14.90;99.90
75430;DHT22;64127;51.488;5.462;2023-03-13T08:45:55;14.90;99.90
75430;DHT22;64127;51.488;5.462;2023-03-13T08:48:27;15.00;99.90
75430;DHT22;64127;51.488;5.462;2023-03-13T08:51:11;15.10;99.90
75430;DHT22;64127;51.488;5.462;2023-03-13T08:53:44;15.10;99.90
75430;DHT22;64127;51.488;5.462;2023-03-13T08:56:18;15.10;99.90
75430;DHT22;64127;51.488;5.462;2023-03-13T08:59:00;15.10;99.90
75430;DHT22;64127;51.488;5.462;2023-03-13T09:01:34;15.10;99.90
75430;DHT22;64127;51.488;5.462;2023-03-13T09:04:07;15.10;99.90
75430;DHT22;64127;51.488;5.462;2023-03-13T09:06:39;15.10;99.90
75430;DHT22;64127;51.488;5.462;2023-03-13T09:09:12;15.00;99.90
75430;DHT22;64127;51.488;5.462;2023-03-13T09:11:44;15.00;99.90
75430;DHT22;64127;51.488;5.462;2023-03-13T09:14:16;15.00;99.90
75430;DHT22;64127;51.488;5.462;2023-03-13T09:16:48;15.10;99.90
75430;DHT22;64127;51.488;5.462;2023-03-13T09:19:21;15.10;99.90
75430;DHT22;64127;51.488;5.462;2023-03-13T09:21:53;15.10;99.90
75430;DHT22;64127;51.488;5.462;2023-03-13T09:24:25;15.20;99.90
75430;DHT22;64127;51.488;5.462;2023-03-13T09:26:57;15.20;99.90
75430;DHT22;64127;51.488;5.462;2023-03-13T09:29:32;15.30;99.90
75430;DHT22;64127;51.488;5.462;2023-03-13T09:32:04;15.40;99.90
75430;DHT22;64127;51.488;5.462;2023-03-13T09:34:36;15.60;99.90
75430;DHT22;64127;51.488;5.462;2023-03-13T09:37:08;15.70;99.90
75430;DHT22;64127;51.488;5.462;2023-03-13T09:39:40;15.80;99.90
75430;DHT22;64127;51.488;5.462;2023-03-13T09:45:04;15.90;99.90
75430;DHT22;64127;51.488;5.462;2023-03-13T09:47:52;16.10;99.90
75430;DHT22;64127;51.488;5.462;2023-03-13T09:50:38;16.20;99.90
75430;DHT22;64127;51.488;5.462;2023-03-13T09:53:18;16.50;99.90
75430;DHT22;64127;51.488;5.462;2023-03-13T09:55:57;16.60;99.90
75430;DHT22;64127;51.488;5.462;2023-03-13T09:58:31;16.70;99.90
75430;DHT22;64127;51.488;5.462;2023-03-13T10:01:05;16.60;99.90
75430;DHT22;64127;51.488;5.462;2023-03-13T10:04:07;16.50;99.90
75430;DHT22;64127;51.488;5.462;2023-03-13T10:06:55;16.30;99.90
75430;DHT22;64127;51.488;5.462;2023-03-13T10:09:30;16.30;99.90
75430;DHT22;64127;51.488;5.462;2023-03-13T10:12:22;16.30;99.90
75430;DHT22;64127;51.488;5.462;2023-03-13T10:18:19;16.70;99.90
75430;DHT22;64127;51.488;5.462;2023-03-13T10:20:59;16.80;99.90
75430;DHT22;64127;51.488;5.462;2023-03-13T10:23:39;16.90;99.90
75430;DHT22;64127;51.488;5.462;2023-03-13T10:26:29;16.80;99.90
75430;DHT22;64127;51.488;5.462;2023-03-13T10:29:22;16.70;99.90
75430;DHT22;64127;51.488;5.462;2023-03-13T10:32:04;16.70;99.90
75430;DHT22;64127;51.488;5.462;2023-03-13T10:34:57;16.80;99.90
75430;DHT22;64127;51.488;5.462;2023-03-13T10:37:40;16.90;99.90
75430;DHT22;64127;51.488;5.462;2023-03-13T10:40:22;16.90;99.90
75430;DHT22;64127;51.488;5.462;2023-03-13T10:43:06;16.90;99.90
75430;DHT22;64127;51.488;5.462;2023-03-13T10:45:45;16.90;99.90
75430;DHT22;64127;51.488;5.462;2023-03-13T10:48:20;16.90;99.90
75430;DHT22;64127;51.488;5.462;2023-03-13T10:50:58;16.90;99.90
75430;DHT22;64127;51.488;5.462;2023-03-13T10:53:35;16.80;99.90
75430;DHT22;64127;51.488;5.462;2023-03-13T10:56:13;16.90;99.90
75430;DHT22;64127;51.488;5.462;2023-03-13T10:58:51;16.90;99.90
75430;DHT22;64127;51.488;5.462;2023-03-13T11:01:25;17.00;99.90
75430;DHT22;64127;51.488;5.462;2023-03-13T11:04:18;17.10;99.90
75430;DHT22;64127;51.488;5.462;2023-03-13T11:10:02;17.40;99.90
75430;DHT22;64127;51.488;5.462;2023-03-13T11:12:56;17.40;99.90
75430;DHT22;64127;51.488;5.462;2023-03-13T11:15:59;17.40;99.90
75430;DHT22;64127;51.488;5.462;2023-03-13T11:19:01;17.30;99.90
75430;DHT22;64127;51.488;5.462;2023-03-13T11:25:17;17.20;99.90
75430;DHT22;64127;51.488;5.462;2023-03-13T11:31:08;17.10;99.90
75430;DHT22;64127;51.488;5.462;2023-03-13T11:37:12;17.10;99.90
75430;DHT22;64127;51.488;5.462;2023-03-13T12:00:39;17.50;99.90
75430;DHT22;64127;51.488;5.462;2023-03-13T12:05:56;17.60;99.90
75430;DHT22;64127;51.488;5.462;2023-03-13T12:08:47;17.60;99.90
75430;DHT22;64127;51.488;5.462;2023-03-13T12:12:14;17.60;99.90
75430;DHT22;64127;51.488;5.462;2023-03-13T12:14:41;17.50;99.90
75430;DHT22;64127;51.488;5.462;2023-03-13T12:17:38;17.40;99.90
75430;DHT22;64127;51.488;5.462;2023-03-13T12:20:57;17.30;99.90
75430;DHT22;64127;51.488;5.462;2023-03-13T12:23:59;17.30;99.90
75430;DHT22;64127;51.488;5.462;2023-03-13T12:27:13;17.20;99.90
75430;DHT22;64127;51.488;5.462;2023-03-13T12:29:56;17.10;99.90
75430;DHT22;64127;51.488;5.462;2023-03-13T12:35:35;17.10;99.90
75430;DHT22;64127;51.488;5.462;2023-03-13T12:38:28;17.10;99.90
75430;DHT22;64127;51.488;5.462;2023-03-13T12:41:20;17.20;99.90
75430;DHT22;64127;51.488;5.462;2023-03-13T12:43:56;17.40;99.90
75430;DHT22;64127;51.488;5.462;2023-03-13T12:46:40;17.60;99.90
75430;DHT22;64127;51.488;5.462;2023-03-13T13:00:51;18.10;99.90
75430;DHT22;64127;51.488;5.462;2023-03-13T13:03:44;18.30;99.40
75430;DHT22;64127;51.488;5.462;2023-03-13T13:06:19;18.50;98.80
75430;DHT22;64127;51.488;5.462;2023-03-13T13:09:01;18.70;98.30
75430;DHT22;64127;51.488;5.462;2023-03-13T13:16:58;18.40;97.40
75430;DHT22;64127;51.488;5.462;2023-03-13T13:32:51;17.90;99.10
75430;DHT22;64127;51.488;5.462;2023-03-13T13:35:34;18.00;99.10
75430;DHT22;64127;51.488;5.462;2023-03-13T13:38:26;18.10;99.10
75430;DHT22;64127;51.488;5.462;2023-03-13T13:46:30;18.40;98.30
75430;DHT22;64127;51.488;5.462;2023-03-13T13:51:40;18.50;96.20
75430;DHT22;64127;51.488;5.462;2023-03-13T13:57:30;18.50;95.80
75430;DHT22;64127;51.488;5.462;2023-03-13T14:00:23;18.60;95.90
75430;DHT22;64127;51.488;5.462;2023-03-13T14:02:57;18.70;95.20
75430;DHT22;64127;51.488;5.462;2023-03-13T14:05:32;18.80;95.00
75430;DHT22;64127;51.488;5.462;2023-03-13T14:08:20;18.90;94.40
75430;DHT22;64127;51.488;5.462;2023-03-13T14:11:13;19.00;93.70
75430;DHT22;64127;51.488;5.462;2023-03-13T14:16:46;19.20;92.40
75430;DHT22;64127;51.488;5.462;2023-03-13T14:19:26;19.20;92.10
75430;DHT22;64127;51.488;5.462;2023-03-13T14:22:06;19.20;92.30
75430;DHT22;64127;51.488;5.462;2023-03-13T14:24:56;19.30;92.40
75430;DHT22;64127;51.488;5.462;2023-03-13T14:27:29;19.40;92.00
75430;DHT22;64127;51.488;5.462;2023-03-13T14:30:06;19.50;91.60
75430;DHT22;64127;51.488;5.462;2023-03-13T14:32:42;19.60;91.20
75430;DHT22;64127;51.488;5.462;2023-03-13T14:35:17;19.60;90.60
75430;DHT22;64127;51.488;5.462;2023-03-13T14:37:51;19.60;90.70
75430;DHT22;64127;51.488;5.462;2023-03-13T14:40:36;19.50;90.60
75430;DHT22;64127;51.488;5.462;2023-03-13T14:43:37;19.40;90.70
75430;DHT22;64127;51.488;5.462;2023-03-13T14:46:30;19.40;90.70
75430;DHT22;64127;51.488;5.462;2023-03-13T14:49:15;19.50;90.40
75430;DHT22;64127;51.488;5.462;2023-03-13T14:51:59;19.50;90.00
75430;DHT22;64127;51.488;5.462;2023-03-13T14:55:01;19.30;89.70
75430;DHT22;64127;51.488;5.462;2023-03-13T14:58:03;19.30;89.70
75430;DHT22;64127;51.488;5.462;2023-03-13T15:00:41;19.40;89.60
75430;DHT22;64127;51.488;5.462;2023-03-13T15:06:03;19.50;87.90
75430;DHT22;64127;51.488;5.462;2023-03-13T15:08:48;19.50;87.30
75430;DHT22;64127;51.488;5.462;2023-03-13T15:11:42;19.40;87.20
75430;DHT22;64127;51.488;5.462;2023-03-13T15:14:40;19.40;87.50
75430;DHT22;64127;51.488;5.462;2023-03-13T15:17:26;19.50;86.80
75430;DHT22;64127;51.488;5.462;2023-03-13T15:19:58;19.70;86.50
75430;DHT22;64127;51.488;5.462;2023-03-13T15:22:35;19.80;86.20
75430;DHT22;64127;51.488;5.462;2023-03-13T15:25:20;20.00;85.00
75430;DHT22;64127;51.488;5.462;2023-03-13T15:27:53;20.10;83.80
75430;DHT22;64127;51.488;5.462;2023-03-13T15:30:25;20.10;83.30
75430;DHT22;64127;51.488;5.462;2023-03-13T15:32:59;20.20;83.30
75430;DHT22;64127;51.488;5.462;2023-03-13T15:35:32;20.30;82.50
75430;DHT22;64127;51.488;5.462;2023-03-13T15:38:09;20.20;81.60
75430;DHT22;64127;51.488;5.462;2023-03-13T15:40:46;20.20;81.20
75430;DHT22;64127;51.488;5.462;2023-03-13T15:43:20;20.20;81.30
75430;DHT22;64127;51.488;5.462;2023-03-13T15:45:53;20.10;80.90
75430;DHT22;64127;51.488;5.462;2023-03-13T15:48:26;20.10;80.10
75430;DHT22;64127;51.488;5.462;2023-03-13T15:51:01;19.90;80.00
75430;DHT22;64127;51.488;5.462;2023-03-13T15:53:35;19.90;80.10
75430;DHT22;64127;51.488;5.462;2023-03-13T15:56:19;19.90;79.20
75430;DHT22;64127;51.488;5.462;2023-03-13T15:58:54;20.00;78.10
75430;DHT22;64127;51.488;5.462;2023-03-13T16:01:27;19.90;78.40
75430;DHT22;64127;51.488;5.462;2023-03-13T16:03:59;19.90;78.30
75430;DHT22;64127;51.488;5.462;2023-03-13T16:06:31;19.90;77.60
75430;DHT22;64127;51.488;5.462;2023-03-13T16:09:05;19.90;77.40
75430;DHT22;64127;51.488;5.462;2023-03-13T16:11:37;19.70;77.10
75430;DHT22;64127;51.488;5.462;2023-03-13T16:14:10;19.50;77.10
75430;DHT22;64127;51.488;5.462;2023-03-13T16:16:42;19.30;77.40
75430;DHT22;64127;51.488;5.462;2023-03-13T16:19:14;19.50;77.50
75430;DHT22;64127;51.488;5.462;2023-03-13T16:21:46;19.80;76.80
75430;DHT22;64127;51.488;5.462;2023-03-13T16:24:19;20.10;75.90
75430;DHT22;64127;51.488;5.462;2023-03-13T16:26:51;20.20;75.10
75430;DHT22;64127;51.488;5.462;2023-03-13T16:29:23;20.20;74.90
75430;DHT22;64127;51.488;5.462;2023-03-13T16:31:56;20.10;73.80
75430;DHT22;64127;51.488;5.462;2023-03-13T16:34:28;20.00;73.90
75430;DHT22;64127;51.488;5.462;2023-03-13T16:37:00;20.00;73.80
75430;DHT22;64127;51.488;5.462;2023-03-13T16:39:31;20.00;73.70
75430;DHT22;64127;51.488;5.462;2023-03-13T16:42:03;20.00;73.30
75430;DHT22;64127;51.488;5.462;2023-03-13T16:44:36;19.90;73.50
75430;DHT22;64127;51.488;5.462;2023-03-13T16:47:19;19.70;73.70
75430;DHT22;64127;51.488;5.462;2023-03-13T16:49:55;19.30;74.20
75430;DHT22;64127;51.488;5.462;2023-03-13T16:52:27;18.80;75.20
75430;DHT22;64127;51.488;5.462;2023-03-13T16:54:59;18.50;76.10
75430;DHT22;64127;51.488;5.462;2023-03-13T16:57:31;18.20;76.90
75430;DHT22;64127;51.488;5.462;2023-03-13T17:00:11;18.00;77.80
75430;DHT22;64127;51.488;5.462;2023-03-13T17:02:48;17.90;78.60
75430;DHT22;64127;51.488;5.462;2023-03-13T17:05:23;17.90;79.30
75430;DHT22;64127;51.488;5.462;2023-03-13T17:07:56;17.80;79.40
75430;DHT22;64127;51.488;5.462;2023-03-13T17:10:32;17.80;79.70
75430;DHT22;64127;51.488;5.462;2023-03-13T17:13:04;17.70;80.20
75430;DHT22;64127;51.488;5.462;2023-03-13T17:15:37;17.70;80.70
75430;DHT22;64127;51.488;5.462;2023-03-13T17:18:09;17.60;80.60
75430;DHT22;64127;51.488;5.462;2023-03-13T17:20:41;17.50;81.00
75430;DHT22;64127;51.488;5.462;2023-03-13T17:23:13;17.50;81.20
75430;DHT22;64127;51.488;5.462;2023-03-13T17:25:45;17.40;81.50
75430;DHT22;64127;51.488;5.462;2023-03-13T17:28:17;17.30;81.90
75430;DHT22;64127;51.488;5.462;2023-03-13T17:30:49;17.30;82.40
75430;DHT22;64127;51.488;5.462;2023-03-13T17:33:21;17.20;82.60
75430;DHT22;64127;51.488;5.462;2023-03-13T17:35:53;17.10;82.90
75430;DHT22;64127;51.488;5.462;2023-03-13T17:38:25;17.10;83.20
75430;DHT22;64127;51.488;5.462;2023-03-13T17:40:57;17.00;83.20
75430;DHT22;64127;51.488;5.462;2023-03-13T17:43:30;17.00;83.40
75430;DHT22;64127;51.488;5.462;2023-03-13T17:46:02;16.90;83.60
75430;DHT22;64127;51.488;5.462;2023-03-13T17:48:34;16.90;84.00
75430;DHT22;64127;51.488;5.462;2023-03-13T17:51:30;16.90;84.40
75430;DHT22;64127;51.488;5.462;2023-03-13T17:54:04;16.80;84.60
75430;DHT22;64127;51.488;5.462;2023-03-13T17:56:38;16.80;85.20
75430;DHT22;64127;51.488;5.462;2023-03-13T17:59:16;16.80;85.30
75430;DHT22;64127;51.488;5.462;2023-03-13T18:01:49;16.80;85.60
75430;DHT22;64127;51.488;5.462;2023-03-13T18:04:21;16.70;85.80
75430;DHT22;64127;51.488;5.462;2023-03-13T18:06:53;16.70;86.10
75430;DHT22;64127;51.488;5.462;2023-03-13T18:09:24;16.60;86.30